logo
Search for airport 
image banner adimage banner adimage banner ad
image banner ad

SHBI - Hospital Biprovincial Quillota-Petorca

Located in Quillota, Chile

ICAO - , IATA -

Data provided by Airmate  

General information

Coordinates: S32°54'6" W71°15'10"
Elevation is 372 feet MSL.
 
View others Airports in Valparaíso

Operational data

Special qualification required
Current time UTC:
Current local time:
Weather at : SCVM - Vina Del Mar ( 22 km )
METAR: SCVM 081600Z 29009KT 250V330 9999 SCT020 18/11 Q1017
View NOTAMs / SUP AIP / TFR affecting this airport [VIEW]
Communications frequencies: [VIEW]

Runways:

Airport contact information

Address: Quillota Chile

Satellite view of SHBI